Flight Track Log - Related Links

Times and Time Zones

All times are in EDT time to prevent confusion due to time zone crossing. See the JIA2385 flight status page for this flight to view local times or setup timezone preferences in your user account.

Time Position Orientation Groundspeed Altitude Reporting Facility
EDT Latitude Longitude Course Direction KTS MPH feet Rate Location/Type
Sat 08:57:12 AM 35.2394 -80.9592 239° Southwest 183 211 1,700  Level Atlanta Center
Sat 08:58:13 AM 35.2781 -81.0061 315° West 215 247 3,400 1,914 Climbing Atlanta Center
Sat 08:59:08 AM 35.2758 -81.0775 268° West 243 280 5,400 1,820 Climbing Atlanta Center
Sat 08:59:42 AM 35.2725 -81.1183 264° West 254 292 6,100 2,043 Climbing Atlanta Center
Sat 09:00:00 AM 35.2390 -81.2813 242° Southwest  Level FlightAware Approximate
Sat 09:00:42 AM 35.2683 -81.2075 267° West 288 331 8,600  Level Atlanta Center
Sat 09:01:00 AM 35.1898 -81.3871 239° Southwest  Level FlightAware Approximate
Sat 09:01:42 AM 35.2411 -81.2925 249° West 289 333 10,800  Level Atlanta Center
Sat 09:02:00 AM 35.1379 -81.4909 239° Southwest  Level FlightAware Approximate
Sat 09:02:42 AM 35.2053 -81.3750 242° Southwest 280 322 12,700  Level Atlanta Center
Sat 09:03:42 AM 35.1636 -81.4678 241° Southwest 285 328 14,500 1,700 Climbing Atlanta Center
Sat 09:04:42 AM 35.1214 -81.5553 239° Southwest 296 341 16,100 1,600 Climbing Atlanta Center
Sat 09:05:42 AM 35.0836 -81.6453 243° Southwest 296 341 17,700 1,550 Climbing Atlanta Center
Sat 09:06:42 AM 35.0436 -81.7328 241° Southwest 296 341 19,200 1,200 Climbing Atlanta Center
Sat 09:07:42 AM 34.9992 -81.8203 238° Southwest 296 341 20,100 1,050 Climbing Atlanta Center
Sat 09:08:42 AM 34.9528 -81.9100 238° Southwest 310 357 21,300 950 Climbing Atlanta Center
Sat 09:09:42 AM 34.9022 -82.0000 236° Southwest 316 364 22,000 850 Climbing Atlanta Center
Sat 09:10:42 AM 34.8558 -82.0922 239° Southwest 316 364 23,000 850 Climbing Atlanta Center
Sat 09:11:42 AM 34.8133 -82.1819 240° Southwest 327 376 23,700 600 Climbing Atlanta Center
Sat 09:12:42 AM 34.8317 -82.2903 282° West 318 366 24,200 600 Climbing Atlanta Center
Sat 09:13:42 AM 34.8664 -82.4033 291° West 337 388 24,900 750 Climbing Atlanta Center
Sat 09:14:42 AM 34.9033 -82.5142 292° West 343 395 25,700 750 Climbing Atlanta Center
Sat 09:15:42 AM 34.9381 -82.6250 291° West 349 402 26,400 600 Climbing Atlanta Center
Sat 09:16:42 AM 34.9750 -82.7436 291° West 354 407 26,900 500 Climbing Atlanta Center
Sat 09:17:42 AM 35.0117 -82.8594 291° West 359 413 27,400 500 Climbing Atlanta Center
Sat 09:18:42 AM 35.0481 -82.9783 291° West 368 423 27,900 300 Climbing Atlanta Center
Sat 09:19:42 AM 35.0867 -83.0997 291° West 374 430 28,000 150 Climbing Atlanta Center
Sat 09:20:42 AM 35.1272 -83.2236 292° West 386 444 28,200 350 Climbing Atlanta Center
Sat 09:21:42 AM 35.1675 -83.3553 291° West 400 460 28,700 500 Climbing Atlanta Center
Sat 09:22:42 AM 35.2081 -83.5000 289° West 408 470 29,200 650 Climbing Atlanta Center
Sat 09:23:42 AM 35.2481 -83.6267 291° West 408 470 30,000 400 Climbing Atlanta Center
Sat 09:24:42 AM 35.2881 -83.7539 291° West 408 470 30,000  Level Atlanta Center
Sat 09:25:42 AM 35.3258 -83.8808 290° West 408 470 30,000  Level Atlanta Center
Sat 09:26:42 AM 35.3636 -84.0108 290° West 408 470 30,000  Level Atlanta Center
Sat 09:27:42 AM 35.4033 -84.1356 291° West 408 470 30,000  Level Atlanta Center
Sat 09:28:42 AM 35.4406 -84.2631 290° West 408 470 30,000  Level Atlanta Center
Sat 09:29:42 AM 35.4800 -84.3933 290° West 408 470 30,000  Level Atlanta Center
Sat 09:30:42 AM 35.5169 -84.5208 290° West 408 470 30,000  Level Atlanta Center
Sat 09:31:42 AM 35.5542 -84.6464 290° West 408 470 30,000  Level Atlanta Center
Sat 09:32:42 AM 35.5931 -84.7742 291° West 408 470 30,000  Level Atlanta Center
Sat 09:33:42 AM 35.6256 -84.8869 290° West 408 470 30,000  Level Atlanta Center
Sat 09:35:44 AM 35.7056 -85.1597 290° West 397 457 30,000  Level Memphis Center
Sat 09:36:44 AM 35.7372 -85.2703 289° West 397 457 30,000  Level Memphis Center
Sat 09:37:44 AM 35.7739 -85.3983 289° West 402 463 30,000  Level Memphis Center
Sat 09:38:44 AM 35.8119 -85.5217 291° West 397 457 30,000  Level Memphis Center
Sat 09:39:44 AM 35.8481 -85.6500 289° West 397 457 30,000  Level Memphis Center
Sat 09:40:44 AM 35.8842 -85.7786 289° West 402 463 30,000  Level Memphis Center
Sat 09:41:44 AM 35.9181 -85.9050 288° West 402 463 30,000  Level Memphis Center
Sat 09:42:44 AM 35.9561 -86.0336 290° West 402 463 30,000  Level Memphis Center
Sat 09:43:44 AM 35.9917 -86.1600 289° West 397 457 30,000  Level Memphis Center
Sat 09:44:44 AM 36.0272 -86.2917 288° West 397 457 30,000  Level Memphis Center
Sat 09:45:44 AM 36.0628 -86.4208 289° West 397 457 30,000  Level Memphis Center
Sat 09:46:44 AM 36.1006 -86.5628 288° West 397 457 30,000  Level Memphis Center
Sat 09:47:44 AM 36.1314 -86.6925 286° West 397 457 30,000  Level Memphis Center
Sat 09:48:44 AM 36.1103 -86.8269 259° West 384 442 30,000  Level Memphis Center
Sat 09:49:44 AM 36.0911 -86.9589 260° West 391 450 30,000  Level Memphis Center
Sat 09:50:44 AM 36.0697 -87.0906 259° West 391 450 30,000  Level Memphis Center
Sat 09:51:44 AM 36.0519 -87.2094 260° West 398 458 30,000  Level Memphis Center
Sat 09:52:44 AM 36.0322 -87.3436 260° West 393 452 30,000  Level Memphis Center
Sat 09:53:44 AM 36.0103 -87.4753 258° West 393 452 30,000 -150 Level Memphis Center
Sat 09:54:44 AM 35.9883 -87.6044 258° West 393 452 29,700 -700 Descending Memphis Center
Sat 09:55:44 AM 35.9661 -87.7358 258° West 393 452 28,600 -1,050 Descending Memphis Center
Sat 09:56:44 AM 35.9439 -87.8725 259° West 393 452 27,600 -1,300 Descending Memphis Center
Sat 09:57:44 AM 35.9178 -88.0244 258° West 398 458 26,000 -1,600 Descending Memphis Center
Sat 09:58:44 AM 35.8911 -88.1636 257° West 419 482 24,400 -1,000 Descending Memphis Center
Sat 09:59:44 AM 35.8664 -88.3053 258° West 419 482 24,000 -200 Descending Memphis Center
Sat 10:00:44 AM 35.8414 -88.4442 258° West 414 476 24,000 -600 Level Memphis Center
Sat 10:01:44 AM 35.8164 -88.5856 258° West 414 476 22,800 -1,450 Descending Memphis Center
Sat 10:02:44 AM 35.7953 -88.7114 258° West 409 471 21,100 -1,700 Descending Memphis Center
Sat 10:03:44 AM 35.7719 -88.8372 257° West 391 450 19,400 -1,650 Descending Memphis Center
Sat 10:04:44 AM 35.7503 -88.9578 258° West 376 433 17,800 -1,650 Descending Memphis Center
Sat 10:05:44 AM 35.7222 -89.0708 253° West 364 419 16,100 -1,750 Descending Memphis Center
Sat 10:06:44 AM 35.6608 -89.1639 231° Southwest 344 396 14,300 -1,900 Descending Memphis Center
Sat 10:07:44 AM 35.5906 -89.2517 225° Southwest 352 405 12,300 -2,000 Descending Memphis Center
Sat 10:08:44 AM 35.5206 -89.3444 227° Southwest 367 422 10,300 -1,150 Descending Memphis Center
Sat 10:09:44 AM 35.4586 -89.4267 227° Southwest 358 412 10,000 -150 Descending Memphis Center
Sat 10:10:44 AM 35.3944 -89.5064 225° Southwest 336 387 10,000  Level Memphis Center
Sat 10:11:44 AM 35.3469 -89.5681 227° Southwest 306 352 10,000 -250 Level Memphis Center
Sat 10:12:44 AM 35.2911 -89.6347 224° Southwest 290 334 9,500 -500 Descending Memphis Center
Sat 10:13:44 AM 35.2414 -89.7011 227° Southwest 273 314 9,000 -250 Descending Memphis Center
Sat 10:14:44 AM 35.1958 -89.7575 225° Southwest 256 295 9,000 -150 Level Memphis Center
Sat 10:15:44 AM 35.1500 -89.8186 227° Southwest 245 282 8,700 -500 Descending Memphis Center
Sat 10:16:44 AM 35.0981 -89.8647 216° Southwest 245 282 8,000 -900 Descending Memphis Center
Sat 10:17:44 AM 35.0292 -89.8678 182° South 237 273 6,900 -1,150 Descending Memphis Center
Sat 10:18:44 AM 34.9625 -89.8681 180° South 237 273 5,700 -1,200 Descending Memphis Center
Sat 10:19:44 AM 34.8978 -89.8658 178° South 237 273 4,500 -1,200 Descending Memphis Center
Sat 10:20:44 AM 34.8394 -89.8814 192° South 226 260 3,300 -750 Descending Memphis Center
Sat 10:23:04 AM 34.9000 -89.9667 311° West 171 197 2,000 -441 Descending KMEM
Sat 10:24:08 AM 34.9500 -89.9667 360° North 163 188 1,800 -484 Descending KMEM
Sat 10:25:08 AM 35.0000 -89.9667 360° North 148 170 1,000 -800 Descending KMEM

Login

Don't have an account? Register now (free) for customized features, flight alerts, and more!